This is the latest recevied weather packets stored in our database for station/object KB6HGN. If no packets are shown the sender has not sent any weather packets the latest 10 day(s).
| Time | Temp. | Humidity | Pressure | Rain* | Wind** | Luminosity | Snow |
|---|---|---|---|---|---|---|---|
| 1777788004 | 17.22° C | 69% | 1013.5 hPa | 0 mm | - | 0 W/m² | - |
| 1777787104 | 17.78° C | 67% | 1013.5 hPa | 0 mm | - | 0 W/m² | - |
| 1777786804 | 17.78° C | 67% | 1013.5 hPa | 0 mm | - | 0 W/m² | - |
| 1777785905 | 17.78° C | 67% | 1013.2 hPa | 0 mm | - | 0 W/m² | - |
| 1777782304 | 19.44° C | 62% | 1012.5 hPa | 0 mm | - | 0 W/m² | - |
| 1777782005 | 19.44° C | 62% | 1012.5 hPa | 0 mm | - | 0 W/m² | - |
| 1777780804 | 20° C | 59% | 1012.2 hPa | 0 mm | - | 0 W/m² | - |
| 1777779005 | 20.56° C | 56% | 1011.7 hPa | 0 mm | - | 0 W/m² | - |
| 1777776604 | 22.78° C | 50% | 1011.2 hPa | 0 mm | - | 0 W/m² | - |
| 1777775704 | 23.89° C | 48% | 1010.8 hPa | 0 mm | - | 0 W/m² | - |
| 1777775104 | 24.44° C | 47% | 1010.6 hPa | 0 mm | - | 0 W/m² | - |
| 1777774804 | 24.44° C | 47% | 1010.8 hPa | 0 mm | - | 0 W/m² | - |
| 1777772105 | 26.11° C | 42% | 1010.5 hPa | 0 mm | - | 51 W/m² | - |
| 1777770604 | 27.22° C | 40% | 1010.5 hPa | 0 mm | - | 128 W/m² | - |
| 1777770304 | 27.22° C | 38% | 1010.5 hPa | 0 mm | - | 143 W/m² | - |
| 1777766704 | 28.33° C | 35% | 1010.3 hPa | 0 mm | - | 402 W/m² | - |
| 1777761604 | 28.89° C | 33% | 1010.8 hPa | 0 mm | - | 683 W/m² | - |
| 1777759204 | 28.89° C | 33% | 1011.6 hPa | 0 mm | - | 787 W/m² | - |
| 1777758005 | 28.89° C | 33% | 1011.8 hPa | 0 mm | - | 818 W/m² | - |
| 1777757704 | 28.89° C | 34% | 1011.8 hPa | 0 mm | - | 818 W/m² | - |
| 1777756204 | 28.33° C | 35% | 1012.2 hPa | 0 mm | - | 857 W/m² | - |
| 1777755304 | 28.33° C | 37% | 1012.2 hPa | 0 mm | - | 895 W/m² | - |
| 1777754405 | 27.78° C | 39% | 1012.5 hPa | 0 mm | - | 891 W/m² | - |
| 1777753204 | 26.67° C | 37% | 1012.5 hPa | 0 mm | - | 915 W/m² | - |
| 1777750504 | 26.11° C | 44% | 1013.5 hPa | 0 mm | - | 933 W/m² | - |
* Rain latest hour (hover to see other rain measurements)
** Current wind speed in m/s (hover to see current wind gust speed)